createdAt,value
2022-12-18T00:00:43.720Z,100282.41
2022-12-18T00:05:52.125Z,100274.81
2022-12-18T00:10:59.841Z,100271.41
2022-12-18T00:16:11.409Z,100285.22
2022-12-18T00:21:17.407Z,100278.56
2022-12-18T00:26:26.264Z,100291.88
2022-12-18T00:31:38.807Z,100296.09
2022-12-18T00:36:44.953Z,100309.63
2022-12-18T00:42:02.945Z,100317.28
2022-12-18T00:47:10.685Z,100329.69
2022-12-18T00:52:15.671Z,100328.53
2022-12-18T00:57:20.610Z,100340.06
2022-12-18T01:02:28.568Z,100345.88
2022-12-18T01:07:34.010Z,100338.81
2022-12-18T01:12:40.796Z,100334.50
2022-12-18T01:17:48.799Z,100336.84
2022-12-18T01:22:53.699Z,100342.38
2022-12-18T01:27:58.967Z,100343.28
2022-12-18T01:33:08.130Z,100344.44
2022-12-18T01:38:14.142Z,100344.75
2022-12-18T01:43:19.003Z,100339.03
2022-12-18T01:48:27.403Z,100350.88
2022-12-18T01:53:32.513Z,100350.38
2022-12-18T01:58:44.684Z,100353.50
2022-12-18T02:03:52.472Z,100364.09
2022-12-18T02:09:06.456Z,100358.84
2022-12-18T02:14:22.167Z,100358.28
2022-12-18T02:19:56.983Z,100356.66
2022-12-18T02:25:16.326Z,100357.03
2022-12-18T02:30:25.351Z,100363.44
2022-12-18T02:35:33.360Z,100364.75
2022-12-18T02:40:42.138Z,100365.91
2022-12-18T02:45:56.203Z,100367.34
2022-12-18T02:51:07.407Z,100367.91
2022-12-18T02:56:18.275Z,100368.25
2022-12-18T03:01:33.322Z,100374.91
2022-12-18T03:06:44.891Z,100365.47
2022-12-18T03:12:10.404Z,100358.59
2022-12-18T03:17:24.450Z,100359.91
2022-12-18T03:22:33.117Z,100372.94
2022-12-18T03:27:44.892Z,100365.19
2022-12-18T03:33:00.714Z,100373.81
2022-12-18T03:38:07.679Z,100373.28
2022-12-18T03:43:24.344Z,100376.09
2022-12-18T03:48:36.544Z,100383.69
2022-12-18T03:53:55.410Z,100393.16
2022-12-18T03:59:05.122Z,100384.03
2022-12-18T04:04:15.895Z,100390.25
2022-12-18T04:09:23.152Z,100395.72
2022-12-18T04:14:29.404Z,100391.31
2022-12-18T04:19:38.422Z,100403.69
2022-12-18T04:24:43.792Z,100401.44
2022-12-18T04:30:07.885Z,100405.91
2022-12-18T04:35:16.069Z,100413.75
2022-12-18T04:40:22.513Z,100415.34
2022-12-18T04:45:28.318Z,100425.50
2022-12-18T04:50:36.329Z,100429.59
2022-12-18T04:55:41.191Z,100429.41
2022-12-18T05:00:46.061Z,100422.09
2022-12-18T05:05:56.123Z,100411.53
2022-12-18T05:11:05.750Z,100414.22
2022-12-18T05:16:11.585Z,100417.56
2022-12-18T05:21:19.197Z,100419.78
2022-12-18T05:26:24.141Z,100416.16
2022-12-18T05:31:29.116Z,100424.38
2022-12-18T05:36:36.699Z,100428.63
2022-12-18T05:41:41.602Z,100427.19
2022-12-18T05:46:46.664Z,100437.19
2022-12-18T05:51:54.568Z,100439.94
2022-12-18T05:56:59.488Z,100432.22
2022-12-18T06:02:04.524Z,100449.38
2022-12-18T06:07:12.122Z,100440.75
2022-12-18T06:12:17.397Z,100443.34
2022-12-18T06:17:22.423Z,100455.28
2022-12-18T06:22:30.138Z,100449.16
2022-12-18T06:27:35.058Z,100450.06
2022-12-18T06:32:40.425Z,100463.56
2022-12-18T06:37:48.191Z,100465.63
2022-12-18T06:42:53.170Z,100452.69
2022-12-18T06:47:58.549Z,100466.22
2022-12-18T06:53:07.965Z,100476.22
2022-12-18T06:58:13.001Z,100483.41
2022-12-18T07:03:17.952Z,100484.38
2022-12-18T07:08:25.494Z,100495.31
2022-12-18T07:13:30.775Z,100498.44
2022-12-18T07:18:35.718Z,100497.38
2022-12-18T07:23:44.018Z,100503.53
2022-12-18T07:28:52.642Z,100496.66
2022-12-18T07:33:57.875Z,100502.66
2022-12-18T07:39:05.506Z,100506.13
2022-12-18T07:44:12.868Z,100522.53
2022-12-18T07:49:17.736Z,100534.81
2022-12-18T07:54:25.654Z,100536.38
2022-12-18T07:59:30.554Z,100537.72
2022-12-18T08:04:35.684Z,100531.13
2022-12-18T08:09:43.293Z,100528.22
2022-12-18T08:14:48.166Z,100514.63
2022-12-18T08:19:53.506Z,100500.44
2022-12-18T08:25:02.352Z,100506.00
2022-12-18T08:30:08.447Z,100500.25
2022-12-18T08:35:14.801Z,100509.03
2022-12-18T08:40:25.213Z,100507.06
2022-12-18T08:45:30.269Z,100507.19
2022-12-18T08:50:35.162Z,100506.94
2022-12-18T08:55:48.570Z,100508.41
2022-12-18T09:00:55.679Z,100519.69
2022-12-18T09:06:00.731Z,100509.94
2022-12-18T09:11:08.588Z,100521.34
2022-12-18T09:16:13.538Z,100534.97
2022-12-18T09:21:20.443Z,100530.81
2022-12-18T09:26:29.485Z,100547.06
2022-12-18T09:31:36.036Z,100543.50
2022-12-18T09:36:41.591Z,100554.53
2022-12-18T09:41:58.014Z,100556.66
2022-12-18T09:47:14.662Z,100555.06
2022-12-18T09:52:25.462Z,100554.25
2022-12-18T09:57:36.113Z,100551.50
2022-12-18T10:02:41.306Z,100545.00
2022-12-18T10:07:57.221Z,100531.53
2022-12-18T10:13:13.989Z,100523.91
2022-12-18T10:18:29.535Z,100506.00
2022-12-18T10:23:48.558Z,100493.81
2022-12-18T10:29:02.207Z,100493.31
2022-12-18T10:34:13.927Z,100480.00
2022-12-18T10:39:24.721Z,100474.34
2022-12-18T10:44:32.373Z,100473.19
2022-12-18T10:49:39.683Z,100465.06
2022-12-18T10:54:50.420Z,100461.94
2022-12-18T11:00:00.183Z,100453.66
2022-12-18T11:05:06.562Z,100461.31
2022-12-18T11:10:20.559Z,100464.34
2022-12-18T11:15:33.271Z,100453.81
2022-12-18T11:20:40.103Z,100453.00
2022-12-18T11:25:56.267Z,100440.13
2022-12-18T11:31:23.421Z,100434.81
2022-12-18T11:36:34.818Z,100441.63
2022-12-18T11:42:01.616Z,100435.31
2022-12-18T11:47:19.155Z,100435.19
2022-12-18T11:52:28.606Z,100436.97
2022-12-18T11:57:42.189Z,100444.09
2022-12-18T12:03:11.741Z,100445.03
2022-12-18T12:08:23.215Z,100426.88
2022-12-18T12:13:40.448Z,100435.75
2022-12-18T12:19:04.104Z,100451.53
2022-12-18T12:24:23.887Z,100455.66
2022-12-18T12:29:42.169Z,100444.94
2022-12-18T12:35:09.441Z,100455.91
2022-12-18T12:40:51.375Z,100475.38
2022-12-18T12:45:54.836Z,100478.47
2022-12-18T12:51:04.556Z,100478.56
2022-12-18T12:56:12.512Z,100478.19
2022-12-18T13:01:29.605Z,100461.59
2022-12-18T13:06:47.504Z,100459.16
2022-12-18T13:12:05.663Z,100460.84
2022-12-18T13:17:31.984Z,100463.00
2022-12-18T13:22:47.268Z,100470.00
2022-12-18T13:28:04.394Z,100466.84
2022-12-18T13:34:25.629Z,100470.13
2022-12-18T13:39:38.608Z,100456.94
2022-12-18T13:44:45.397Z,100456.47
2022-12-18T13:49:50.944Z,100467.34
2022-12-18T13:55:01.942Z,100474.50
2022-12-18T14:00:29.633Z,100455.34
2022-12-18T14:05:39.958Z,100461.97
2022-12-18T14:10:54.793Z,100457.78
2022-12-18T14:16:04.454Z,100470.91
2022-12-18T14:21:19.552Z,100485.03
2022-12-18T14:26:31.857Z,100472.69
2022-12-18T14:31:36.867Z,100460.63
2022-12-18T14:36:41.847Z,100459.31
2022-12-18T14:41:50.667Z,100449.91
2022-12-18T14:46:56.937Z,100431.72
2022-12-18T14:52:06.940Z,100418.44
2022-12-18T14:57:26.372Z,100436.91
2022-12-18T15:02:33.119Z,100446.50
2022-12-18T15:07:45.823Z,100458.19
2022-12-18T15:13:12.807Z,100445.69
2022-12-18T15:18:21.478Z,100452.50
2022-12-18T15:23:28.793Z,100448.09
2022-12-18T15:28:40.764Z,100449.19
2022-12-18T15:33:47.572Z,100440.94
2022-12-18T15:38:53.667Z,100452.09
2022-12-18T15:44:01.480Z,100449.25
2022-12-18T15:49:06.586Z,100444.00
2022-12-18T15:54:16.766Z,100445.44
2022-12-18T15:59:25.119Z,100442.19
2022-12-18T16:04:30.059Z,100424.19
2022-12-18T16:09:34.956Z,100426.66
2022-12-18T16:14:43.492Z,100419.94
2022-12-18T16:19:49.095Z,100415.09
2022-12-18T16:24:55.337Z,100424.31
2022-12-18T16:30:03.363Z,100410.56
2022-12-18T16:35:09.691Z,100413.81
2022-12-18T16:40:17.188Z,100396.31
2022-12-18T16:45:27.554Z,100395.94
2022-12-18T16:50:35.801Z,100391.75
2022-12-18T16:55:40.685Z,100397.44
2022-12-18T17:00:48.319Z,100400.00
2022-12-18T17:05:54.425Z,100399.22
2022-12-18T17:11:00.413Z,100395.47
2022-12-18T17:16:10.792Z,100395.00
2022-12-18T17:21:16.236Z,100397.91
2022-12-18T17:26:23.575Z,100399.19
2022-12-18T17:31:33.743Z,100396.13
2022-12-18T17:36:39.672Z,100382.66
2022-12-18T17:41:46.813Z,100381.97
2022-12-18T17:46:55.685Z,100386.84
2022-12-18T17:52:00.997Z,100366.09
2022-12-18T17:57:06.873Z,100371.94
2022-12-18T18:02:18.858Z,100358.69
2022-12-18T18:07:26.877Z,100352.06
2022-12-18T18:12:45.634Z,100355.13
2022-12-18T18:17:54.068Z,100356.41
2022-12-18T18:22:59.433Z,100351.88
2022-12-18T18:28:05.441Z,100354.03
2022-12-18T18:33:13.012Z,100347.50
2022-12-18T18:38:20.398Z,100344.09
2022-12-18T18:43:25.846Z,100330.47
2022-12-18T18:48:36.605Z,100322.72
2022-12-18T18:53:44.833Z,100317.81
2022-12-18T18:58:50.300Z,100314.94
2022-12-18T19:04:01.697Z,100302.59
2022-12-18T19:09:07.576Z,100304.69
2022-12-18T19:14:15.428Z,100308.91
2022-12-18T19:19:23.786Z,100308.41
2022-12-18T19:24:29.095Z,100273.88
2022-12-18T19:29:34.140Z,100276.78
2022-12-18T19:34:44.043Z,100270.47
2022-12-18T19:39:55.197Z,100235.91
2022-12-18T19:45:04.128Z,100262.34
2022-12-18T19:50:14.022Z,100264.78
2022-12-18T19:55:28.785Z,100253.44
2022-12-18T20:00:36.601Z,100244.84
2022-12-18T20:05:44.763Z,100241.28
2022-12-18T20:10:50.723Z,100238.34
2022-12-18T20:15:57.444Z,100248.88
2022-12-18T20:21:08.308Z,100237.06
2022-12-18T20:26:18.514Z,100235.91
2022-12-18T20:31:29.030Z,100252.78
2022-12-18T20:36:38.819Z,100236.22
2022-12-18T20:41:46.043Z,100247.25
2022-12-18T20:46:51.771Z,100239.41
2022-12-18T20:52:03.278Z,100234.38
2022-12-18T20:57:08.793Z,100221.84
2022-12-18T21:02:16.686Z,100240.66
2022-12-18T21:07:27.731Z,100231.25
2022-12-18T21:13:01.593Z,100206.28
2022-12-18T21:18:09.627Z,100216.03
2022-12-18T21:23:17.781Z,100234.38
2022-12-18T21:28:22.876Z,100226.06
2022-12-18T21:33:28.893Z,100235.16
2022-12-18T21:38:36.691Z,100218.09
2022-12-18T21:43:54.008Z,100218.69
2022-12-18T21:48:59.034Z,100218.00
2022-12-18T21:54:07.230Z,100217.88
2022-12-18T21:59:12.861Z,100217.72
2022-12-18T22:04:18.731Z,100211.44
2022-12-18T22:09:28.118Z,100202.50
2022-12-18T22:14:33.287Z,100206.38
2022-12-18T22:19:42.804Z,100198.91
2022-12-18T22:24:50.870Z,100186.16
2022-12-18T22:30:08.307Z,100198.50
2022-12-18T22:35:16.032Z,100191.38
2022-12-18T22:40:26.895Z,100188.13
2022-12-18T22:45:31.954Z,100170.75
2022-12-18T22:50:38.940Z,100176.66
2022-12-18T22:55:46.486Z,100173.28
2022-12-18T23:00:51.674Z,100163.69
2022-12-18T23:05:56.610Z,100159.63
2022-12-18T23:11:04.620Z,100150.22
2022-12-18T23:16:11.046Z,100146.31
2022-12-18T23:21:17.730Z,100126.41
2022-12-18T23:26:28.161Z,100106.44
2022-12-18T23:31:34.974Z,100101.75
2022-12-18T23:36:46.006Z,100103.69
2022-12-18T23:41:54.636Z,100091.06
2022-12-18T23:46:59.510Z,100085.50
2022-12-18T23:52:04.406Z,100079.41
2022-12-18T23:57:11.957Z,100077.59
